Time;durP1;ratioP1;P1;durP2;ratioP2;P2;SDS_P1;SDS_P2;PMS_P1;PMS_P2;Temp;Humidity;BMP_temperature;BMP_pressure;BME280_temperature;BME280_humidity;BME280_pressure;Samples;Min_cycle;Max_cycle;Signal;HPM_P1;HPM_P2
2023/10/11 00:03:08;;;;;;;21.92;11.00;;;16.40;54.10;;;;;;5091304;28;20485;-72
2023/10/11 00:05:41;;;;;;;18.50;10.18;;;16.40;55.70;;;;;;5090311;28;20810;-72
2023/10/11 00:08:08;;;;;;;23.67;11.02;;;16.40;55.70;;;;;;5095416;28;20788;-72
2023/10/11 00:10:42;;;;;;;21.88;11.18;;;16.40;57.10;;;;;;5077877;28;21407;-72
2023/10/11 00:13:12;;;;;;;22.42;11.65;;;16.40;57.10;;;;;;5074558;28;20879;-72
2023/10/11 00:15:38;;;;;;;25.15;12.80;;;16.40;57.80;;;;;;5087350;28;20470;-72
2023/10/11 00:18:04;;;;;;;24.98;12.35;;;16.40;58.30;;;;;;5087531;28;20413;-72
2023/10/11 00:20:35;;;;;;;25.95;13.00;;;16.40;60.30;;;;;;5082794;28;20410;-72
2023/10/11 00:23:01;;;;;;;25.02;12.98;;;16.40;60.10;;;;;;5087467;28;20941;-72
2023/10/11 00:25:27;;;;;;;29.23;13.45;;;16.30;61.70;;;;;;5087589;28;20485;-72
2023/10/11 00:27:58;;;;;;;26.30;14.00;;;16.40;62.40;;;;;;5088360;28;20414;-72
2023/10/11 00:30:30;;;;;;;31.10;13.80;;;16.40;63.50;;;;;;5092664;28;20417;-72
2023/10/11 00:32:56;;;;;;;31.45;14.25;;;16.30;64.00;;;;;;5094463;28;20445;-72
2023/10/11 00:35:25;;;;;;;26.27;13.68;;;16.40;65.10;;;;;;5091295;28;20398;-72
2023/10/11 00:37:52;;;;;;;31.98;14.60;;;16.40;64.50;;;;;;5097110;28;20417;-72
2023/10/11 00:40:31;;;;;;;31.67;15.27;;;16.40;66.70;;;;;;5091189;28;20409;-72
2023/10/11 00:42:58;;;;;;;30.48;14.68;;;16.40;67.00;;;;;;5092486;28;20923;-73
2023/10/11 00:45:26;;;;;;;28.88;14.32;;;16.40;68.00;;;;;;5083234;28;20413;-73
2023/10/11 00:47:53;;;;;;;30.85;15.77;;;16.40;68.10;;;;;;5091262;28;20402;-71
2023/10/11 00:50:21;;;;;;;29.63;15.55;;;16.50;68.80;;;;;;5091702;28;20492;-71
2023/10/11 00:52:50;;;;;;;34.17;15.60;;;16.40;69.50;;;;;;5094140;28;20434;-71
2023/10/11 00:55:23;;;;;;;33.20;15.63;;;16.40;69.30;;;;;;5090811;28;20485;-71
2023/10/11 00:57:53;;;;;;;34.85;15.55;;;16.50;71.10;;;;;;5085841;28;20409;-71
2023/10/11 01:00:23;;;;;;;33.60;15.68;;;16.50;71.10;;;;;;5090482;28;20394;-71
2023/10/11 01:02:52;;;;;;;31.00;14.93;;;16.50;71.60;;;;;;5091149;28;20413;-71
2023/10/11 01:05:18;;;;;;;34.20;16.13;;;16.50;71.50;;;;;;5090224;28;20415;-71
2023/10/11 01:07:44;;;;;;;34.88;16.55;;;16.50;72.30;;;;;;5090887;28;20907;-72
2023/10/11 01:10:11;;;;;;;35.75;16.48;;;16.50;72.50;;;;;;5066894;28;20474;-71
2023/10/11 01:12:40;;;;;;;32.90;16.42;;;16.50;73.00;;;;;;5090535;28;20432;-71
2023/10/11 01:15:11;;;;;;;34.15;16.30;;;16.50;73.90;;;;;;5090469;28;20951;-71
2023/10/11 01:17:41;;;;;;;33.28;15.77;;;16.50;75.10;;;;;;5097055;28;20885;-71
2023/10/11 01:20:13;;;;;;;33.90;15.90;;;16.50;74.60;;;;;;5086615;28;20413;-71
2023/10/11 01:22:41;;;;;;;34.45;17.02;;;16.50;74.70;;;;;;5090969;28;20903;-71
2023/10/11 01:25:08;;;;;;;34.03;16.67;;;16.50;76.00;;;;;;5091434;28;20407;-71
2023/10/11 01:27:36;;;;;;;35.85;16.27;;;16.50;75.50;;;;;;5090078;28;20394;-72
2023/10/11 01:30:07;;;;;;;35.05;16.65;;;16.50;75.10;;;;;;5098297;28;20410;-71
2023/10/11 01:32:37;;;;;;;33.45;16.33;;;16.50;75.90;;;;;;5090608;28;20414;-71
2023/10/11 01:35:04;;;;;;;33.92;16.80;;;16.50;76.30;;;;;;5098458;28;20412;-72
2023/10/11 01:37:36;;;;;;;37.25;16.10;;;16.50;77.10;;;;;;5084859;28;20477;-71
2023/10/11 01:40:07;;;;;;;37.97;16.75;;;16.50;76.60;;;;;;5084027;28;20414;-72
2023/10/11 01:42:33;;;;;;;37.95;17.27;;;16.40;75.70;;;;;;5089486;28;20896;-71
2023/10/11 01:45:00;;;;;;;35.63;16.50;;;16.50;76.80;;;;;;5089326;28;20807;-71
2023/10/11 01:47:26;;;;;;;35.25;16.92;;;16.50;78.50;;;;;;5088736;28;20410;-72
2023/10/11 01:49:52;;;;;;;38.17;16.63;;;16.50;78.60;;;;;;5089869;28;20398;-72
2023/10/11 01:52:18;;;;;;;39.13;17.08;;;16.50;78.20;;;;;;5089694;28;20486;-72
2023/10/11 01:54:44;;;;;;;33.35;16.63;;;16.40;78.70;;;;;;5090234;28;20556;-72
2023/10/11 01:57:12;;;;;;;36.55;16.88;;;16.50;79.20;;;;;;5088607;28;20410;-71
2023/10/11 01:59:38;;;;;;;35.88;16.77;;;16.50;79.60;;;;;;5089921;28;20405;-72
2023/10/11 02:02:09;;;;;;;37.57;17.70;;;16.50;79.80;;;;;;5089455;28;20443;-71
2023/10/11 02:04:40;;;;;;;36.05;16.63;;;16.50;79.60;;;;;;5085905;28;20432;-72
2023/10/11 02:07:05;;;;;;;36.92;16.42;;;16.50;80.50;;;;;;5085554;28;20501;-71
2023/10/11 02:09:33;;;;;;;32.67;16.58;;;16.50;81.00;;;;;;5089671;28;21029;-71
2023/10/11 02:11:59;;;;;;;33.80;16.70;;;16.50;81.20;;;;;;5082243;28;20410;-72
2023/10/11 02:14:28;;;;;;;37.95;17.20;;;16.50;81.20;;;;;;5097566;28;20408;-72
2023/10/11 02:16:53;;;;;;;37.43;16.10;;;16.50;81.00;;;;;;5092534;28;20425;-72
2023/10/11 02:19:22;;;;;;;36.08;15.95;;;16.50;81.60;;;;;;5089230;28;20558;-72
2023/10/11 02:21:48;;;;;;;36.70;16.00;;;16.50;81.90;;;;;;5089620;28;20511;-72
2023/10/11 02:24:17;;;;;;;36.03;16.67;;;16.50;81.90;;;;;;5087848;28;20433;-72
2023/10/11 02:26:49;;;;;;;37.42;15.98;;;16.50;81.80;;;;;;5087599;28;20410;-72
2023/10/11 02:29:21;;;;;;;37.42;16.77;;;16.50;81.80;;;;;;5095199;28;20488;-72
2023/10/11 02:31:52;;;;;;;38.47;16.00;;;16.50;82.40;;;;;;5089194;28;20402;-72
2023/10/11 02:34:18;;;;;;;34.93;15.87;;;16.50;82.20;;;;;;5090359;28;20411;-71
2023/10/11 02:36:46;;;;;;;42.38;17.30;;;16.50;82.00;;;;;;5089460;28;20416;-71
2023/10/11 02:39:20;;;;;;;38.03;15.73;;;16.40;82.10;;;;;;5087384;28;20449;-71
2023/10/11 02:41:50;;;;;;;35.65;15.25;;;16.40;81.80;;;;;;5079832;28;20409;-71
2023/10/11 02:44:15;;;;;;;35.93;16.17;;;16.40;82.10;;;;;;5089159;28;20426;-71
2023/10/11 02:46:44;;;;;;;36.60;15.73;;;16.40;83.00;;;;;;5093742;28;20463;-71
2023/10/11 02:49:19;;;;;;;38.38;16.83;;;16.40;83.00;;;;;;5089269;28;20837;-71
2023/10/11 02:51:52;;;;;;;35.78;15.57;;;16.40;83.20;;;;;;5087066;28;20403;-71
2023/10/11 02:57:18;;;;;;;34.17;15.80;;;16.40;82.30;;;;;;5070630;28;20959;-71
2023/10/11 02:59:50;;;;;;;37.72;16.05;;;16.30;83.40;;;;;;5088365;28;20406;-71
2023/10/11 03:02:16;;;;;;;39.22;16.70;;;16.30;83.70;;;;;;5088921;28;20417;-71
2023/10/11 03:04:42;;;;;;;34.22;15.80;;;16.30;83.10;;;;;;5091125;28;20458;-72
2023/10/11 03:07:23;;;;;;;36.10;16.00;;;16.40;83.70;;;;;;5088507;28;20424;-72
2023/10/11 03:09:50;;;;;;;37.45;16.38;;;16.40;83.20;;;;;;5085569;28;20390;-72
2023/10/11 03:12:24;;;;;;;36.20;17.25;;;16.30;84.00;;;;;;5088257;28;20401;-72
2023/10/11 03:14:54;;;;;;;40.75;16.98;;;16.30;84.20;;;;;;5085138;28;20414;-72
2023/10/11 03:17:20;;;;;;;39.97;16.55;;;16.30;84.50;;;;;;5087852;28;20402;-72
2023/10/11 03:19:49;;;;;;;39.80;16.48;;;16.30;84.40;;;;;;5086769;28;20960;-72
2023/10/11 03:22:20;;;;;;;37.63;17.20;;;16.30;84.50;;;;;;5088284;28;20406;-72
2023/10/11 03:24:59;;;;;;;36.67;16.00;;;16.30;85.50;;;;;;5090187;28;20452;-72
2023/10/11 03:27:27;;;;;;;31.75;15.50;;;16.30;84.70;;;;;;5097539;28;20409;-72
2023/10/11 03:29:53;;;;;;;38.35;15.30;;;16.30;84.80;;;;;;5088318;28;20858;-72
2023/10/11 03:32:19;;;;;;;36.55;16.48;;;16.40;83.90;;;;;;5086622;28;20414;-72
2023/10/11 03:34:45;;;;;;;34.35;15.18;;;16.40;85.00;;;;;;5088693;28;20413;-72
2023/10/11 03:37:17;;;;;;;37.83;17.00;;;16.40;85.10;;;;;;5093820;28;20462;-72
2023/10/11 03:39:44;;;;;;;33.63;16.05;;;16.40;85.10;;;;;;5088354;28;20406;-72
2023/10/11 03:44:37;;;;;;;36.35;15.43;;;16.40;84.50;;;;;;5087842;28;20918;-73
2023/10/11 03:47:14;;;;;;;34.90;15.57;;;16.40;85.10;;;;;;5119809;27;20920;-73
2023/10/11 03:52:19;;;;;;;32.90;15.53;;;16.40;84.50;;;;;;5086893;28;20406;-72
2023/10/11 03:54:46;;;;;;;35.53;15.05;;;16.50;84.40;;;;;;5091280;28;20429;-72
2023/10/11 03:57:12;;;;;;;36.53;15.20;;;16.50;84.90;;;;;;5088781;28;20410;-72
2023/10/11 03:59:47;;;;;;;30.42;14.73;;;16.50;84.90;;;;;;5100723;28;20418;-72
2023/10/11 04:02:14;;;;;;;35.63;15.43;;;16.50;84.70;;;;;;5088106;28;20480;-72
2023/10/11 04:04:42;;;;;;;33.77;15.47;;;16.50;85.10;;;;;;5091835;28;20426;-72
2023/10/11 04:07:12;;;;;;;33.63;15.30;;;16.50;84.40;;;;;;5094193;28;20413;-72
2023/10/11 04:09:38;;;;;;;33.42;15.52;;;16.40;84.50;;;;;;5091542;28;20405;-72
2023/10/11 04:12:05;;;;;;;36.27;15.40;;;16.50;84.40;;;;;;5092136;28;20462;-72
2023/10/11 04:14:44;;;;;;;33.43;15.37;;;16.40;84.00;;;;;;5097743;28;21181;-72
2023/10/11 04:19:50;;;;;;;34.83;14.80;;;16.30;84.40;;;;;;5091332;28;20413;-71
2023/10/11 04:22:23;;;;;;;36.08;15.32;;;16.30;84.30;;;;;;5091581;28;20811;-72
2023/10/11 04:24:53;;;;;;;37.38;15.35;;;16.30;84.60;;;;;;5088428;28;20940;-72
2023/10/11 04:29:51;;;;;;;37.28;15.15;;;16.30;85.30;;;;;;5090319;28;20529;-72
2023/10/11 04:32:41;;;;;;;35.97;15.13;;;16.30;84.90;;;;;;5091452;28;20825;-71
2023/10/11 04:35:22;;;;;;;37.83;15.10;;;16.20;85.10;;;;;;5090065;28;20455;-72
2023/10/11 04:37:54;;;;;;;32.88;14.93;;;16.20;85.10;;;;;;5116994;27;20402;-72
2023/10/11 04:43:08;;;;;;;33.13;14.43;;;16.20;85.20;;;;;;5091146;28;20421;-72
2023/10/11 04:45:55;;;;;;;38.27;15.03;;;16.10;85.20;;;;;;5090008;28;20931;-72
2023/10/11 04:48:36;;;;;;;31.85;14.90;;;16.10;85.40;;;;;;5072671;28;20446;-72
2023/10/11 04:51:04;;;;;;;39.33;15.13;;;16.10;85.10;;;;;;5082787;28;20401;-72
2023/10/11 04:53:34;;;;;;;34.53;14.65;;;16.10;86.00;;;;;;5090693;28;20406;-72
2023/10/11 04:58:54;;;;;;;29.35;14.02;;;16.10;85.80;;;;;;5091114;28;20479;-72
2023/10/11 05:01:24;;;;;;;28.75;13.98;;;16.10;86.10;;;;;;5098264;28;20426;-72
2023/10/11 05:03:58;;;;;;;34.80;13.47;;;16.10;85.70;;;;;;5089513;28;20530;-72
2023/10/11 05:06:31;;;;;;;32.20;14.30;;;16.10;86.30;;;;;;5093577;28;20410;-72
2023/10/11 05:09:13;;;;;;;35.97;14.20;;;16.10;85.90;;;;;;5090778;28;20439;-71
2023/10/11 05:11:43;;;;;;;35.40;14.10;;;16.00;86.10;;;;;;5091810;28;20481;-72
2023/10/11 05:19:46;;;;;;;31.77;13.33;;;16.00;86.70;;;;;;5086745;28;20417;-71
2023/10/11 05:32:41;;;;;;;29.25;13.40;;;16.10;87.30;;;;;;5085422;28;20485;-72
2023/10/11 05:35:43;;;;;;;31.20;13.27;;;16.00;86.90;;;;;;5090136;28;21317;-72
2023/10/11 05:51:51;;;;;;;30.50;13.20;;;16.10;87.20;;;;;;5088829;28;20798;-72
2023/10/11 05:54:18;;;;;;;31.63;13.15;;;16.00;86.90;;;;;;5089751;28;20394;-72
2023/10/11 05:56:49;;;;;;;33.67;13.20;;;16.00;86.90;;;;;;5089470;28;20412;-72
2023/10/11 05:59:15;;;;;;;30.08;12.80;;;16.10;87.10;;;;;;5082472;28;20399;-72
2023/10/11 06:01:44;;;;;;;30.10;13.37;;;16.10;87.70;;;;;;5089171;28;20405;-72
2023/10/11 06:04:13;;;;;;;32.50;13.03;;;16.10;87.70;;;;;;5089529;28;20470;-72
2023/10/11 06:06:42;;;;;;;29.70;13.10;;;16.10;87.90;;;;;;5083778;28;20409;-72
2023/10/11 06:09:17;;;;;;;35.55;14.38;;;16.20;88.80;;;;;;5089265;28;20398;-72
2023/10/11 06:11:48;;;;;;;32.33;13.48;;;16.10;88.10;;;;;;5089440;28;20402;-72
2023/10/11 06:14:16;;;;;;;35.58;13.98;;;16.20;88.20;;;;;;5088860;28;20394;-72
2023/10/11 06:16:49;;;;;;;27.88;12.75;;;16.30;88.50;;;;;;5088877;28;20991;-72
2023/10/11 06:19:18;;;;;;;33.15;13.70;;;16.30;88.50;;;;;;5089198;28;20772;-72
2023/10/11 06:21:56;;;;;;;31.23;13.05;;;16.30;88.30;;;;;;5088859;28;20442;-72
2023/10/11 06:24:25;;;;;;;35.08;14.13;;;16.40;88.20;;;;;;5088884;28;20433;-73
2023/10/11 06:26:56;;;;;;;28.95;12.80;;;16.40;88.00;;;;;;5121371;27;20760;-72
2023/10/11 06:29:28;;;;;;;34.17;13.95;;;16.40;87.90;;;;;;5088615;28;20405;-73
2023/10/11 06:31:54;;;;;;;33.03;13.53;;;16.50;88.00;;;;;;5089193;28;20402;-73
2023/10/11 06:34:26;;;;;;;36.47;14.82;;;16.50;87.90;;;;;;5088920;28;20401;-73
2023/10/11 06:36:53;;;;;;;31.45;13.43;;;16.50;87.70;;;;;;5088272;28;20402;-72
2023/10/11 06:44:48;;;;;;;30.83;12.98;;;16.60;87.30;;;;;;5088597;28;20437;-72
2023/10/11 06:47:19;;;;;;;33.20;13.30;;;16.60;87.50;;;;;;5076266;28;21057;-72
2023/10/11 06:49:55;;;;;;;31.98;13.45;;;16.60;87.20;;;;;;5088490;28;20679;-72
2023/10/11 06:52:26;;;;;;;27.45;13.32;;;16.60;86.80;;;;;;5076694;28;20447;-72
2023/10/11 06:57:45;;;;;;;28.90;12.63;;;16.70;86.70;;;;;;5088246;28;20433;-71
2023/10/11 07:00:20;;;;;;;32.45;13.13;;;16.70;86.80;;;;;;5085529;28;20448;-72
2023/10/11 07:03:07;;;;;;;30.98;12.80;;;16.70;86.50;;;;;;5087637;28;20411;-72
2023/10/11 07:05:42;;;;;;;34.47;12.13;;;16.70;86.80;;;;;;5086944;28;20814;-71
2023/10/11 07:08:10;;;;;;;32.92;12.70;;;16.70;86.80;;;;;;5082615;28;20915;-72
2023/10/11 07:10:45;;;;;;;30.65;12.95;;;16.70;86.30;;;;;;5079710;28;20403;-72
2023/10/11 07:13:13;;;;;;;30.40;12.70;;;16.80;86.80;;;;;;5087668;28;20406;-71
2023/10/11 07:15:38;;;;;;;31.88;12.80;;;16.70;86.60;;;;;;5086414;28;21118;-72
2023/10/11 07:18:08;;;;;;;33.00;12.67;;;16.80;86.70;;;;;;5087847;28;20497;-72
2023/10/11 07:23:22;;;;;;;30.20;12.48;;;16.90;86.50;;;;;;5079210;28;20430;-72
2023/10/11 07:25:59;;;;;;;28.77;12.50;;;16.90;86.30;;;;;;5084135;28;20413;-72
2023/10/11 07:28:37;;;;;;;27.50;12.18;;;16.90;86.30;;;;;;5087579;28;20448;-72
2023/10/11 07:31:05;;;;;;;31.58;12.52;;;16.90;86.00;;;;;;5087807;28;20398;-72
2023/10/11 07:33:31;;;;;;;27.70;12.02;;;16.90;86.10;;;;;;5087565;28;20622;-72
2023/10/11 07:36:00;;;;;;;25.08;11.50;;;17.00;85.90;;;;;;5087579;28;20402;-72
2023/10/11 07:38:33;;;;;;;28.95;10.95;;;17.00;85.30;;;;;;5086048;28;20409;-72
2023/10/11 07:41:17;;;;;;;25.15;10.93;;;17.00;84.90;;;;;;5081046;28;20407;-72
2023/10/11 07:43:45;;;;;;;24.20;10.27;;;17.00;84.80;;;;;;5085722;28;20422;-72
2023/10/11 07:46:11;;;;;;;25.45;9.73;;;17.10;84.90;;;;;;5085746;28;20398;-72
2023/10/11 07:48:39;;;;;;;24.77;10.30;;;17.10;84.70;;;;;;5086192;28;20406;-72
2023/10/11 07:51:14;;;;;;;18.83;9.70;;;17.10;84.40;;;;;;5087604;28;20976;-72
2023/10/11 07:53:41;;;;;;;20.13;8.80;;;17.20;84.10;;;;;;5083026;28;20492;-72
2023/10/11 07:56:08;;;;;;;23.42;8.73;;;17.30;83.50;;;;;;5087580;28;20417;-72
2023/10/11 07:58:35;;;;;;;21.10;9.02;;;17.30;82.60;;;;;;5086916;28;20905;-72
2023/10/11 08:01:04;;;;;;;18.57;8.97;;;17.30;82.00;;;;;;5087664;28;20397;-72
2023/10/11 08:03:34;;;;;;;19.77;8.63;;;17.30;81.60;;;;;;5087527;28;20446;-72
2023/10/11 08:06:08;;;;;;;22.10;9.80;;;17.40;81.40;;;;;;5087739;28;20929;-72
2023/10/11 08:08:37;;;;;;;25.00;9.85;;;17.40;81.10;;;;;;5085506;28;21025;-72
2023/10/11 08:11:06;;;;;;;25.37;10.07;;;17.40;81.00;;;;;;5087394;28;20417;-72
2023/10/11 08:13:34;;;;;;;23.37;10.90;;;17.50;80.90;;;;;;5087586;28;20398;-72
2023/10/11 08:16:05;;;;;;;26.55;10.90;;;17.50;80.60;;;;;;5086177;28;20524;-72
2023/10/11 08:18:32;;;;;;;22.38;9.85;;;17.50;80.50;;;;;;5087326;28;20398;-72
2023/10/11 08:20:57;;;;;;;23.50;10.43;;;17.50;80.30;;;;;;5081085;28;20781;-72
2023/10/11 08:23:29;;;;;;;24.30;11.13;;;17.50;80.20;;;;;;5119443;28;20430;-72
2023/10/11 08:25:56;;;;;;;24.53;9.90;;;17.50;80.40;;;;;;5119831;28;20953;-72
2023/10/11 08:28:28;;;;;;;22.48;10.77;;;17.50;80.60;;;;;;5087160;28;20492;-72
2023/10/11 08:30:57;;;;;;;23.13;10.27;;;17.50;80.80;;;;;;5085039;28;20406;-72
2023/10/11 08:33:25;;;;;;;26.88;10.98;;;17.50;80.90;;;;;;5069210;28;20406;-72
2023/10/11 08:35:53;;;;;;;22.63;10.53;;;17.50;81.00;;;;;;5086397;28;20462;-73
2023/10/11 08:38:19;;;;;;;23.15;10.57;;;17.50;81.00;;;;;;5087168;28;20538;-72
2023/10/11 08:40:50;;;;;;;23.98;9.90;;;17.50;81.00;;;;;;5086975;28;20980;-72
2023/10/11 08:43:16;;;;;;;24.63;9.85;;;17.50;81.00;;;;;;5087042;28;20417;-72
2023/10/11 08:45:47;;;;;;;23.73;9.63;;;17.50;81.50;;;;;;5087180;28;20394;-72
2023/10/11 08:48:12;;;;;;;24.37;9.57;;;17.50;80.70;;;;;;5087237;28;20409;-72
2023/10/11 08:50:38;;;;;;;22.02;9.63;;;17.50;80.30;;;;;;5090606;28;20409;-72
2023/10/11 08:53:08;;;;;;;22.07;9.43;;;17.50;80.30;;;;;;5089658;28;20416;-73
2023/10/11 08:55:39;;;;;;;20.35;9.18;;;17.50;79.90;;;;;;5090613;28;20421;-73
2023/10/11 08:58:05;;;;;;;22.73;9.63;;;17.60;79.90;;;;;;5089335;28;20412;-72
2023/10/11 09:00:33;;;;;;;21.05;9.80;;;17.60;79.70;;;;;;5089816;28;20461;-73
2023/10/11 09:03:18;;;;;;;24.20;9.68;;;17.50;79.70;;;;;;5090589;28;20413;-73
2023/10/11 09:05:44;;;;;;;22.95;9.68;;;17.60;79.70;;;;;;5090892;28;20792;-72
2023/10/11 09:08:36;;;;;;;21.25;9.25;;;17.60;79.70;;;;;;5090154;28;20420;-73
2023/10/11 09:11:28;;;;;;;18.35;9.13;;;17.60;79.00;;;;;;5088792;28;20421;-73
2023/10/11 09:14:22;;;;;;;18.50;8.23;;;17.60;78.30;;;;;;5085916;28;20406;-73
2023/10/11 09:16:57;;;;;;;18.45;8.48;;;17.60;77.30;;;;;;5090702;28;20406;-73
2023/10/11 09:19:23;;;;;;;21.27;8.60;;;17.60;76.30;;;;;;5086617;28;20405;-73
2023/10/11 09:22:02;;;;;;;16.42;8.02;;;17.60;75.70;;;;;;5090905;28;20410;-73
2023/10/11 09:24:29;;;;;;;17.63;8.52;;;17.60;75.50;;;;;;5087661;28;20547;-72
2023/10/11 09:29:48;;;;;;;14.98;7.40;;;17.70;75.80;;;;;;5090689;28;20413;-73
2023/10/11 09:32:19;;;;;;;16.42;7.03;;;17.60;74.60;;;;;;5089998;28;20488;-72
2023/10/11 09:34:46;;;;;;;13.95;7.20;;;17.60;73.20;;;;;;5090533;28;20393;-72
2023/10/11 09:37:12;;;;;;;12.27;6.57;;;17.60;70.80;;;;;;5090434;28;20394;-73
2023/10/11 09:39:42;;;;;;;11.85;6.40;;;17.70;70.70;;;;;;5090117;28;20772;-72
2023/10/11 09:42:13;;;;;;;11.32;6.30;;;17.70;70.40;;;;;;5089888;28;20914;-72
2023/10/11 09:44:44;;;;;;;11.55;5.88;;;17.70;70.60;;;;;;5090410;28;20506;-72
2023/10/11 09:47:16;;;;;;;11.23;5.97;;;17.80;69.30;;;;;;5087642;28;20477;-72
2023/10/11 09:49:42;;;;;;;12.38;5.78;;;17.90;68.40;;;;;;5089932;28;20394;-72
2023/10/11 09:52:16;;;;;;;9.38;5.57;;;17.90;67.40;;;;;;5089498;28;20791;-72
2023/10/11 09:54:42;;;;;;;13.20;5.80;;;18.00;66.90;;;;;;5089717;28;20398;-72
2023/10/11 09:57:48;;;;;;;12.40;5.35;;;18.00;66.30;;;;;;5089669;28;20426;-73
2023/10/11 10:00:34;;;;;;;10.68;5.30;;;18.00;65.20;;;;;;5085665;28;20509;-73
2023/10/11 10:03:04;;;;;;;11.27;5.68;;;18.10;64.10;;;;;;5087837;28;20414;-72
2023/10/11 10:06:05;;;;;;;9.57;5.60;;;18.10;64.10;;;;;;5090064;28;20409;-73
2023/10/11 10:08:31;;;;;;;9.10;5.45;;;18.10;64.00;;;;;;5087939;28;20471;-72
2023/10/11 10:10:57;;;;;;;10.00;4.90;;;18.10;62.80;;;;;;5071188;28;20501;-72
2023/10/11 10:13:26;;;;;;;10.45;4.80;;;18.20;63.80;;;;;;5089482;28;20402;-72
2023/10/11 10:15:53;;;;;;;11.23;5.38;;;18.30;64.50;;;;;;5089551;28;20910;-72
2023/10/11 10:18:20;;;;;;;11.73;5.25;;;18.50;64.80;;;;;;5079855;28;20844;-72
2023/10/11 10:20:56;;;;;;;11.20;5.30;;;18.60;63.30;;;;;;5086273;28;20413;-72
2023/10/11 10:23:22;;;;;;;11.13;5.55;;;18.80;61.50;;;;;;5089228;28;20846;-72
2023/10/11 10:26:06;;;;;;;10.20;5.15;;;19.00;57.40;;;;;;5078011;28;20946;-72
2023/10/11 10:28:32;;;;;;;10.73;5.22;;;19.00;54.80;;;;;;5089206;28;20888;-72
2023/10/11 10:31:17;;;;;;;12.37;5.90;;;18.90;55.50;;;;;;5088119;28;20410;-72
2023/10/11 10:34:05;;;;;;;10.30;5.65;;;18.80;57.60;;;;;;5087500;28;20406;-72
2023/10/11 10:36:31;;;;;;;12.30;6.40;;;18.70;59.80;;;;;;5089187;28;20398;-72
2023/10/11 10:41:36;;;;;;;14.52;6.07;;;18.70;64.80;;;;;;5088852;28;20402;-72
2023/10/11 10:44:02;;;;;;;10.57;5.78;;;18.70;63.90;;;;;;5088378;28;20429;-72
2023/10/11 10:46:27;;;;;;;12.50;5.40;;;18.80;66.80;;;;;;5088640;28;20402;-72
2023/10/11 10:48:55;;;;;;;11.03;5.33;;;19.50;74.50;;;;;;5087987;28;20406;-72
2023/10/11 10:51:21;;;;;;;10.57;5.38;;;19.90;58.80;;;;;;5087574;28;20466;-72
2023/10/11 10:53:53;;;;;;;11.47;5.27;;;20.00;53.60;;;;;;5088805;28;20921;-72
2023/10/11 10:56:24;;;;;;;10.95;4.95;;;20.20;54.20;;;;;;5088166;28;20922;-72
2023/10/11 10:59:11;;;;;;;8.50;4.55;;;20.40;51.30;;;;;;5087343;28;20416;-72
2023/10/11 11:01:40;;;;;;;10.38;4.85;;;20.40;47.10;;;;;;5111035;27;20456;-72
2023/10/11 11:04:09;;;;;;;9.85;4.57;;;20.30;46.60;;;;;;5088351;28;20426;-72
2023/10/11 11:06:38;;;;;;;10.05;4.60;;;20.20;45.60;;;;;;5088723;28;20433;-72
2023/10/11 11:09:05;;;;;;;10.67;4.50;;;20.00;45.40;;;;;;5088716;28;20969;-72
2023/10/11 11:11:35;;;;;;;8.98;4.40;;;19.90;46.60;;;;;;5088474;28;20400;-72
2023/10/11 11:14:11;;;;;;;9.93;4.22;;;20.10;50.60;;;;;;5088530;28;20406;-72
2023/10/11 11:16:41;;;;;;;9.73;3.70;;;20.20;46.70;;;;;;5087639;28;20394;-71
2023/10/11 11:19:16;;;;;;;9.38;3.97;;;20.20;43.70;;;;;;5088021;28;20402;-72
2023/10/11 11:21:46;;;;;;;9.88;4.18;;;20.10;41.50;;;;;;5079581;28;20415;-72
2023/10/11 11:24:18;;;;;;;8.80;3.63;;;20.00;41.70;;;;;;5068022;28;20469;-72
2023/10/11 11:26:43;;;;;;;9.88;3.88;;;19.90;40.90;;;;;;5088673;28;20458;-72
2023/10/11 11:29:10;;;;;;;9.55;4.00;;;19.80;41.60;;;;;;5088359;28;20406;-72
2023/10/11 11:31:52;;;;;;;11.30;4.10;;;19.70;40.90;;;;;;5086794;28;20911;-72
2023/10/11 11:34:27;;;;;;;9.57;3.60;;;19.70;43.10;;;;;;5076426;28;20418;-72
2023/10/11 11:37:04;;;;;;;7.30;3.38;;;19.60;43.50;;;;;;5088051;28;20485;-72
2023/10/11 11:44:57;;;;;;;9.20;3.55;;;19.50;41.10;;;;;;5072951;28;20426;-72
2023/10/11 11:47:23;;;;;;;10.70;3.40;;;19.50;41.70;;;;;;5087646;28;20390;-72
2023/10/11 11:49:48;;;;;;;6.80;3.10;;;19.50;42.60;;;;;;5088271;28;20395;-72
2023/10/11 11:52:16;;;;;;;7.22;3.70;;;19.50;42.80;;;;;;5088189;28;20451;-72
2023/10/11 11:54:43;;;;;;;8.77;3.60;;;19.50;42.50;;;;;;5087816;28;20776;-72
2023/10/11 11:57:09;;;;;;;10.23;3.28;;;19.50;42.80;;;;;;5077688;28;20413;-72
2023/10/11 11:59:36;;;;;;;8.67;3.13;;;19.50;43.20;;;;;;5087791;28;20434;-72
2023/10/11 12:02:02;;;;;;;8.80;3.00;;;19.50;43.90;;;;;;5078355;28;20940;-73
2023/10/11 12:04:32;;;;;;;7.57;2.90;;;19.60;43.50;;;;;;5087500;28;20962;-72
2023/10/11 12:07:03;;;;;;;8.93;2.50;;;19.80;43.20;;;;;;5078789;28;20489;-72
2023/10/11 12:09:35;;;;;;;9.02;3.10;;;20.00;40.10;;;;;;5087463;28;20397;-72
2023/10/11 12:12:06;;;;;;;6.47;2.53;;;20.00;39.30;;;;;;5087671;28;20402;-72
2023/10/11 12:14:39;;;;;;;8.07;3.13;;;20.00;36.50;;;;;;5087694;28;20436;-72
2023/10/11 12:17:11;;;;;;;6.38;2.63;;;19.90;36.50;;;;;;5087682;28;20398;-72
2023/10/11 12:19:37;;;;;;;7.70;2.78;;;19.90;37.90;;;;;;5087065;28;20394;-72
2023/10/11 12:22:03;;;;;;;6.97;2.67;;;19.90;37.70;;;;;;5087692;28;20394;-72
2023/10/11 12:24:29;;;;;;;7.65;2.85;;;19.80;38.10;;;;;;5088802;28;20518;-72
2023/10/11 12:26:58;;;;;;;7.30;2.90;;;19.90;39.80;;;;;;5091414;28;20839;-72
2023/10/11 12:29:26;;;;;;;9.38;2.92;;;20.10;42.30;;;;;;5090295;28;20406;-72
2023/10/11 12:31:55;;;;;;;9.55;2.90;;;20.40;40.60;;;;;;5091718;28;20748;-72
2023/10/11 12:34:24;;;;;;;7.18;2.80;;;20.60;35.70;;;;;;5091590;28;20414;-73
2023/10/11 12:36:54;;;;;;;6.85;2.72;;;20.60;30.80;;;;;;5091495;28;20597;-73
2023/10/11 12:39:20;;;;;;;8.50;2.67;;;20.60;29.40;;;;;;5091006;28;20904;-72
2023/10/11 12:41:50;;;;;;;8.13;2.73;;;20.40;29.30;;;;;;5091267;28;20451;-72
2023/10/11 12:44:19;;;;;;;8.48;2.70;;;20.20;28.50;;;;;;5091507;28;20425;-72
2023/10/11 12:46:51;;;;;;;11.40;2.97;;;20.10;32.00;;;;;;5091112;28;20425;-72
2023/10/11 12:49:18;;;;;;;8.37;2.60;;;20.00;30.20;;;;;;5090928;28;20440;-72
2023/10/11 12:51:45;;;;;;;7.55;2.50;;;19.80;31.10;;;;;;5080163;28;20805;-72
2023/10/11 12:54:15;;;;;;;7.47;2.80;;;19.70;31.60;;;;;;5072752;28;20442;-72
2023/10/11 12:56:42;;;;;;;6.45;2.45;;;19.70;33.60;;;;;;5090874;28;20409;-72
2023/10/11 12:59:15;;;;;;;5.47;2.20;;;19.70;32.60;;;;;;5090436;28;20409;-72
2023/10/11 13:01:55;;;;;;;8.80;2.50;;;19.70;33.10;;;;;;5086552;28;20414;-72
2023/10/11 13:04:30;;;;;;;7.45;2.28;;;19.70;32.10;;;;;;5085183;28;20988;-72
2023/10/11 13:06:59;;;;;;;9.43;2.80;;;19.60;32.40;;;;;;5091266;28;20430;-71
2023/10/11 13:09:27;;;;;;;9.80;3.40;;;19.50;36.10;;;;;;5090427;28;20406;-72
2023/10/11 13:12:02;;;;;;;8.88;3.08;;;19.40;40.00;;;;;;5089601;28;20407;-72
2023/10/11 13:14:28;;;;;;;9.02;3.28;;;19.20;43.20;;;;;;5090869;28;20398;-72
2023/10/11 13:16:58;;;;;;;9.50;3.43;;;19.20;46.40;;;;;;5091205;28;20398;-72
2023/10/11 13:19:25;;;;;;;8.50;3.10;;;19.10;48.60;;;;;;5090427;28;20511;-72
2023/10/11 13:21:55;;;;;;;9.73;3.40;;;19.00;51.40;;;;;;5089682;28;20892;-72
2023/10/11 13:24:26;;;;;;;8.63;3.13;;;19.00;52.80;;;;;;5090326;28;20414;-72
2023/10/11 13:26:54;;;;;;;7.72;2.97;;;19.00;53.50;;;;;;5090541;28;20452;-72
2023/10/11 13:29:21;;;;;;;9.18;3.40;;;18.90;54.40;;;;;;5090630;28;20477;-72
2023/10/11 13:31:53;;;;;;;7.93;2.70;;;19.00;55.90;;;;;;5079702;28;20529;-72
2023/10/11 13:34:19;;;;;;;7.80;2.90;;;19.20;56.30;;;;;;5088878;28;20530;-72
2023/10/11 13:36:45;;;;;;;9.40;3.05;;;19.20;53.70;;;;;;5089363;28;20531;-72
2023/10/11 13:39:26;;;;;;;9.40;3.10;;;19.30;52.30;;;;;;5089838;28;20488;-72
2023/10/11 13:41:56;;;;;;;8.77;2.90;;;19.30;51.80;;;;;;5088532;28;20450;-72
2023/10/11 13:44:24;;;;;;;7.72;2.80;;;19.20;50.80;;;;;;5090132;28;20425;-72
2023/10/11 13:46:52;;;;;;;8.45;2.67;;;19.20;50.60;;;;;;5090013;28;20986;-71
2023/10/11 13:49:25;;;;;;;7.85;2.38;;;19.20;49.80;;;;;;5089149;28;20402;-72
2023/10/11 13:51:58;;;;;;;7.43;2.33;;;19.20;49.70;;;;;;5089483;28;20414;-72
2023/10/11 13:54:49;;;;;;;7.75;2.60;;;19.20;49.80;;;;;;5089947;28;20756;-72
2023/10/11 13:57:18;;;;;;;8.05;2.53;;;19.30;49.30;;;;;;5090256;28;20424;-72
2023/10/11 13:59:48;;;;;;;7.13;2.35;;;19.30;49.60;;;;;;5089612;28;20408;-72
2023/10/11 14:04:48;;;;;;;8.40;3.05;;;19.30;50.10;;;;;;5089822;28;20429;-72